sensor_id;sensor_type;location;lat;lon;timestamp;temperature;humidity
33863;DHT22;20158;51.436;-2.742;2022-09-13T00:01:21;21.50;71.30
33863;DHT22;20158;51.436;-2.742;2022-09-13T00:03:47;21.50;71.40
33863;DHT22;20158;51.436;-2.742;2022-09-13T00:06:17;21.50;71.40
33863;DHT22;20158;51.436;-2.742;2022-09-13T00:08:45;21.50;71.50
33863;DHT22;20158;51.436;-2.742;2022-09-13T00:11:24;21.50;71.50
33863;DHT22;20158;51.436;-2.742;2022-09-13T00:13:51;21.40;71.40
33863;DHT22;20158;51.436;-2.742;2022-09-13T00:16:19;21.50;71.50
33863;DHT22;20158;51.436;-2.742;2022-09-13T00:18:46;21.50;71.60
33863;DHT22;20158;51.436;-2.742;2022-09-13T00:21:15;21.40;71.50
33863;DHT22;20158;51.436;-2.742;2022-09-13T00:23:46;21.40;71.50
33863;DHT22;20158;51.436;-2.742;2022-09-13T00:26:15;21.40;71.60
33863;DHT22;20158;51.436;-2.742;2022-09-13T00:28:42;21.40;71.60
33863;DHT22;20158;51.436;-2.742;2022-09-13T00:31:10;21.40;71.70
33863;DHT22;20158;51.436;-2.742;2022-09-13T00:33:37;21.30;71.60
33863;DHT22;20158;51.436;-2.742;2022-09-13T00:36:09;21.30;71.70
33863;DHT22;20158;51.436;-2.742;2022-09-13T00:38:36;21.30;71.80
33863;DHT22;20158;51.436;-2.742;2022-09-13T00:41:08;21.30;71.80
33863;DHT22;20158;51.436;-2.742;2022-09-13T00:49:12;21.30;72.00
33863;DHT22;20158;51.436;-2.742;2022-09-13T00:51:42;21.20;71.80
33863;DHT22;20158;51.436;-2.742;2022-09-13T00:54:11;21.20;71.90
33863;DHT22;20158;51.436;-2.742;2022-09-13T00:56:43;21.20;71.90
33863;DHT22;20158;51.436;-2.742;2022-09-13T00:59:22;21.20;72.00
33863;DHT22;20158;51.436;-2.742;2022-09-13T01:01:53;21.10;71.90
33863;DHT22;20158;51.436;-2.742;2022-09-13T01:04:23;21.10;72.00
33863;DHT22;20158;51.436;-2.742;2022-09-13T01:06:51;21.10;72.10
33863;DHT22;20158;51.436;-2.742;2022-09-13T01:09:18;21.00;71.90
33863;DHT22;20158;51.436;-2.742;2022-09-13T01:11:52;21.00;72.00
33863;DHT22;20158;51.436;-2.742;2022-09-13T01:14:26;21.00;72.20
33863;DHT22;20158;51.436;-2.742;2022-09-13T01:16:52;20.90;72.00
33863;DHT22;20158;51.436;-2.742;2022-09-13T01:19:19;20.90;72.10
33863;DHT22;20158;51.436;-2.742;2022-09-13T01:21:58;20.90;72.20
33863;DHT22;20158;51.436;-2.742;2022-09-13T01:25:02;20.80;72.10
33863;DHT22;20158;51.436;-2.742;2022-09-13T01:30:20;20.80;72.30
33863;DHT22;20158;51.436;-2.742;2022-09-13T01:32:51;20.70;72.10
33863;DHT22;20158;51.436;-2.742;2022-09-13T01:41:16;20.70;72.40
33863;DHT22;20158;51.436;-2.742;2022-09-13T01:44:15;20.60;72.30
33863;DHT22;20158;51.436;-2.742;2022-09-13T01:49:45;20.60;72.50
33863;DHT22;20158;51.436;-2.742;2022-09-13T01:54:50;20.50;72.30
33863;DHT22;20158;51.436;-2.742;2022-09-13T02:00:13;20.40;72.40
33863;DHT22;20158;51.436;-2.742;2022-09-13T02:02:49;20.40;72.40
33863;DHT22;20158;51.436;-2.742;2022-09-13T02:05:43;20.40;72.40
33863;DHT22;20158;51.436;-2.742;2022-09-13T02:08:21;20.30;72.30
33863;DHT22;20158;51.436;-2.742;2022-09-13T02:10:52;20.30;72.30
33863;DHT22;20158;51.436;-2.742;2022-09-13T02:13:25;20.30;72.30
33863;DHT22;20158;51.436;-2.742;2022-09-13T02:15:55;20.20;72.30
33863;DHT22;20158;51.436;-2.742;2022-09-13T02:18:34;20.20;72.20
33863;DHT22;20158;51.436;-2.742;2022-09-13T02:21:08;20.10;72.00
33863;DHT22;20158;51.436;-2.742;2022-09-13T02:23:46;20.10;72.10
33863;DHT22;20158;51.436;-2.742;2022-09-13T02:26:14;20.10;72.10
33863;DHT22;20158;51.436;-2.742;2022-09-13T02:28:44;20.10;72.20
33863;DHT22;20158;51.436;-2.742;2022-09-13T02:31:17;20.00;72.10
33863;DHT22;20158;51.436;-2.742;2022-09-13T02:33:53;20.00;72.10
33863;DHT22;20158;51.436;-2.742;2022-09-13T02:36:25;20.00;72.20
33863;DHT22;20158;51.436;-2.742;2022-09-13T02:38:58;20.00;72.20
33863;DHT22;20158;51.436;-2.742;2022-09-13T02:41:36;19.90;72.00
33863;DHT22;20158;51.436;-2.742;2022-09-13T02:44:18;19.90;72.00
33863;DHT22;20158;51.436;-2.742;2022-09-13T02:46:59;19.90;72.00
33863;DHT22;20158;51.436;-2.742;2022-09-13T02:49:54;19.90;72.00
33863;DHT22;20158;51.436;-2.742;2022-09-13T02:55:25;19.80;71.80
33863;DHT22;20158;51.436;-2.742;2022-09-13T02:58:13;19.80;71.80
33863;DHT22;20158;51.436;-2.742;2022-09-13T03:00:43;19.80;71.70
33863;DHT22;20158;51.436;-2.742;2022-09-13T03:03:11;19.80;71.80
33863;DHT22;20158;51.436;-2.742;2022-09-13T03:05:40;19.70;71.50
33863;DHT22;20158;51.436;-2.742;2022-09-13T03:08:10;19.70;71.50
33863;DHT22;20158;51.436;-2.742;2022-09-13T03:10:47;19.70;71.50
33863;DHT22;20158;51.436;-2.742;2022-09-13T03:13:21;19.60;71.30
33863;DHT22;20158;51.436;-2.742;2022-09-13T03:18:50;19.50;71.10
33863;DHT22;20158;51.436;-2.742;2022-09-13T03:35:04;19.40;70.80
33863;DHT22;20158;51.436;-2.742;2022-09-13T03:40:25;19.30;70.70
33863;DHT22;20158;51.436;-2.742;2022-09-13T03:43:09;19.30;71.20
33863;DHT22;20158;51.436;-2.742;2022-09-13T03:45:47;19.30;70.60
33863;DHT22;20158;51.436;-2.742;2022-09-13T03:48:14;19.30;70.60
33863;DHT22;20158;51.436;-2.742;2022-09-13T03:50:41;19.30;70.60
33863;DHT22;20158;51.436;-2.742;2022-09-13T03:53:12;19.30;70.60
33863;DHT22;20158;51.436;-2.742;2022-09-13T03:55:42;19.30;70.50
33863;DHT22;20158;51.436;-2.742;2022-09-13T03:58:11;19.20;70.30
33863;DHT22;20158;51.436;-2.742;2022-09-13T04:00:38;19.20;70.30
33863;DHT22;20158;51.436;-2.742;2022-09-13T04:03:06;19.20;70.30
33863;DHT22;20158;51.436;-2.742;2022-09-13T04:05:32;19.20;70.30
33863;DHT22;20158;51.436;-2.742;2022-09-13T04:08:03;19.20;70.30
33863;DHT22;20158;51.436;-2.742;2022-09-13T04:10:31;19.10;70.10
33863;DHT22;20158;51.436;-2.742;2022-09-13T04:12:58;19.10;70.00
33863;DHT22;20158;51.436;-2.742;2022-09-13T04:15:26;19.10;70.10
33863;DHT22;20158;51.436;-2.742;2022-09-13T04:17:52;19.00;69.90
33863;DHT22;20158;51.436;-2.742;2022-09-13T04:20:18;19.00;69.90
33863;DHT22;20158;51.436;-2.742;2022-09-13T04:22:52;19.00;69.90
33863;DHT22;20158;51.436;-2.742;2022-09-13T04:25:19;19.00;69.90
33863;DHT22;20158;51.436;-2.742;2022-09-13T04:27:48;18.90;69.70
33863;DHT22;20158;51.436;-2.742;2022-09-13T04:30:18;18.90;70.20
33863;DHT22;20158;51.436;-2.742;2022-09-13T04:32:43;18.80;69.50
33863;DHT22;20158;51.436;-2.742;2022-09-13T04:35:11;18.80;69.50
33863;DHT22;20158;51.436;-2.742;2022-09-13T04:37:37;18.80;69.50
33863;DHT22;20158;51.436;-2.742;2022-09-13T04:40:05;18.80;69.40
33863;DHT22;20158;51.436;-2.742;2022-09-13T04:42:34;18.70;69.30
33863;DHT22;20158;51.436;-2.742;2022-09-13T04:45:00;18.70;69.20
33863;DHT22;20158;51.436;-2.742;2022-09-13T04:47:26;18.70;69.20
33863;DHT22;20158;51.436;-2.742;2022-09-13T04:49:52;18.70;69.20
33863;DHT22;20158;51.436;-2.742;2022-09-13T04:52:18;18.60;68.90
33863;DHT22;20158;51.436;-2.742;2022-09-13T04:54:45;18.70;69.10
33863;DHT22;20158;51.436;-2.742;2022-09-13T04:57:14;18.70;69.10
33863;DHT22;20158;51.436;-2.742;2022-09-13T04:59:42;18.60;68.90
33863;DHT22;20158;51.436;-2.742;2022-09-13T05:02:08;18.60;68.90
33863;DHT22;20158;51.436;-2.742;2022-09-13T05:04:34;18.50;68.70
33863;DHT22;20158;51.436;-2.742;2022-09-13T05:07:00;18.60;69.10
33863;DHT22;20158;51.436;-2.742;2022-09-13T05:09:26;18.60;68.80
33863;DHT22;20158;51.436;-2.742;2022-09-13T05:11:52;18.50;68.60
33863;DHT22;20158;51.436;-2.742;2022-09-13T05:14:20;18.50;68.60
33863;DHT22;20158;51.436;-2.742;2022-09-13T05:16:46;18.50;68.50
33863;DHT22;20158;51.436;-2.742;2022-09-13T05:19:12;18.50;68.50
33863;DHT22;20158;51.436;-2.742;2022-09-13T05:21:38;18.40;68.30
33863;DHT22;20158;51.436;-2.742;2022-09-13T05:24:04;18.40;68.30
33863;DHT22;20158;51.436;-2.742;2022-09-13T05:26:30;18.40;68.20
33863;DHT22;20158;51.436;-2.742;2022-09-13T05:28:57;18.40;68.20
33863;DHT22;20158;51.436;-2.742;2022-09-13T05:31:44;18.40;68.20
33863;DHT22;20158;51.436;-2.742;2022-09-13T05:34:15;18.30;68.00
33863;DHT22;20158;51.436;-2.742;2022-09-13T05:36:43;18.40;68.10
33863;DHT22;20158;51.436;-2.742;2022-09-13T05:39:13;18.30;67.90
33863;DHT22;20158;51.436;-2.742;2022-09-13T05:41:40;18.30;67.80
33863;DHT22;20158;51.436;-2.742;2022-09-13T05:44:07;18.30;67.70
33863;DHT22;20158;51.436;-2.742;2022-09-13T05:46:33;18.30;67.60
33863;DHT22;20158;51.436;-2.742;2022-09-13T05:48:59;18.30;67.60
33863;DHT22;20158;51.436;-2.742;2022-09-13T05:51:25;18.30;67.50
33863;DHT22;20158;51.436;-2.742;2022-09-13T05:53:53;18.30;67.50
33863;DHT22;20158;51.436;-2.742;2022-09-13T05:56:27;18.20;67.20
33863;DHT22;20158;51.436;-2.742;2022-09-13T05:58:54;18.30;67.30
33863;DHT22;20158;51.436;-2.742;2022-09-13T06:01:22;18.30;67.20
33863;DHT22;20158;51.436;-2.742;2022-09-13T06:03:52;18.30;67.20
33863;DHT22;20158;51.436;-2.742;2022-09-13T06:06:18;18.30;67.10
33863;DHT22;20158;51.436;-2.742;2022-09-13T06:08:45;18.20;67.30
33863;DHT22;20158;51.436;-2.742;2022-09-13T06:11:13;18.30;68.40
33863;DHT22;20158;51.436;-2.742;2022-09-13T06:13:40;18.30;69.10
33863;DHT22;20158;51.436;-2.742;2022-09-13T06:16:08;18.40;69.70
33863;DHT22;20158;51.436;-2.742;2022-09-13T06:18:35;18.50;70.40
33863;DHT22;20158;51.436;-2.742;2022-09-13T06:21:11;18.50;70.70
33863;DHT22;20158;51.436;-2.742;2022-09-13T06:23:46;18.60;71.10
33863;DHT22;20158;51.436;-2.742;2022-09-13T06:26:15;18.60;70.70
33863;DHT22;20158;51.436;-2.742;2022-09-13T06:28:41;18.60;70.40
33863;DHT22;20158;51.436;-2.742;2022-09-13T06:31:10;18.60;70.10
33863;DHT22;20158;51.436;-2.742;2022-09-13T06:33:37;18.60;69.80
33863;DHT22;20158;51.436;-2.742;2022-09-13T06:36:07;18.50;69.40
33863;DHT22;20158;51.436;-2.742;2022-09-13T06:38:33;18.50;69.20
33863;DHT22;20158;51.436;-2.742;2022-09-13T06:41:10;18.50;69.10
33863;DHT22;20158;51.436;-2.742;2022-09-13T06:43:36;18.50;69.00
33863;DHT22;20158;51.436;-2.742;2022-09-13T06:46:08;18.40;68.70
33863;DHT22;20158;51.436;-2.742;2022-09-13T06:48:37;18.40;68.50
33863;DHT22;20158;51.436;-2.742;2022-09-13T06:51:13;18.40;68.30
33863;DHT22;20158;51.436;-2.742;2022-09-13T06:53:44;18.40;68.10
33863;DHT22;20158;51.436;-2.742;2022-09-13T06:58:39;18.30;67.60
33863;DHT22;20158;51.436;-2.742;2022-09-13T07:01:18;18.30;67.60
33863;DHT22;20158;51.436;-2.742;2022-09-13T07:03:48;18.30;67.60
33863;DHT22;20158;51.436;-2.742;2022-09-13T07:06:16;18.30;67.60
33863;DHT22;20158;51.436;-2.742;2022-09-13T07:08:43;18.30;67.60
33863;DHT22;20158;51.436;-2.742;2022-09-13T07:11:11;18.40;67.60
33863;DHT22;20158;51.436;-2.742;2022-09-13T07:13:39;18.30;67.20
33863;DHT22;20158;51.436;-2.742;2022-09-13T07:16:08;18.40;67.20
33863;DHT22;20158;51.436;-2.742;2022-09-13T07:18:34;18.30;66.90
33863;DHT22;20158;51.436;-2.742;2022-09-13T07:21:11;18.30;66.70
33863;DHT22;20158;51.436;-2.742;2022-09-13T07:23:39;18.40;66.70
33863;DHT22;20158;51.436;-2.742;2022-09-13T07:26:06;18.40;66.70
33863;DHT22;20158;51.436;-2.742;2022-09-13T07:28:37;18.40;66.60
33863;DHT22;20158;51.436;-2.742;2022-09-13T07:33:41;18.40;66.40
33863;DHT22;20158;51.436;-2.742;2022-09-13T07:36:08;18.50;66.60
33863;DHT22;20158;51.436;-2.742;2022-09-13T07:38:37;18.50;66.60
33863;DHT22;20158;51.436;-2.742;2022-09-13T07:41:06;18.60;66.90
33863;DHT22;20158;51.436;-2.742;2022-09-13T07:43:34;18.70;67.10
33863;DHT22;20158;51.436;-2.742;2022-09-13T07:46:06;18.80;67.30
33863;DHT22;20158;51.436;-2.742;2022-09-13T07:48:35;18.90;67.30
33863;DHT22;20158;51.436;-2.742;2022-09-13T07:51:06;19.00;67.20
33863;DHT22;20158;51.436;-2.742;2022-09-13T07:53:34;19.00;66.80
33863;DHT22;20158;51.436;-2.742;2022-09-13T07:58:32;19.10;66.40
33863;DHT22;20158;51.436;-2.742;2022-09-13T08:01:19;19.10;66.30
33863;DHT22;20158;51.436;-2.742;2022-09-13T08:03:53;19.20;66.20
33863;DHT22;20158;51.436;-2.742;2022-09-13T08:06:21;19.20;66.00
33863;DHT22;20158;51.436;-2.742;2022-09-13T08:08:47;19.20;65.80
33863;DHT22;20158;51.436;-2.742;2022-09-13T08:11:17;19.20;65.50
33863;DHT22;20158;51.436;-2.742;2022-09-13T08:13:47;19.20;65.30
33863;DHT22;20158;51.436;-2.742;2022-09-13T08:16:14;19.20;65.10
33863;DHT22;20158;51.436;-2.742;2022-09-13T08:18:44;19.30;65.20
33863;DHT22;20158;51.436;-2.742;2022-09-13T08:21:10;19.30;65.00
33863;DHT22;20158;51.436;-2.742;2022-09-13T08:23:36;19.30;64.90
33863;DHT22;20158;51.436;-2.742;2022-09-13T08:26:02;19.40;64.90
33863;DHT22;20158;51.436;-2.742;2022-09-13T08:28:30;19.40;64.70
33863;DHT22;20158;51.436;-2.742;2022-09-13T08:31:03;19.40;64.60
33863;DHT22;20158;51.436;-2.742;2022-09-13T08:33:29;19.50;64.50
33863;DHT22;20158;51.436;-2.742;2022-09-13T08:35:55;19.50;64.30
33863;DHT22;20158;51.436;-2.742;2022-09-13T08:38:24;19.50;64.10
33863;DHT22;20158;51.436;-2.742;2022-09-13T08:40:54;19.60;64.10
33863;DHT22;20158;51.436;-2.742;2022-09-13T08:46:26;19.70;63.90
33863;DHT22;20158;51.436;-2.742;2022-09-13T08:48:57;19.70;63.70
33863;DHT22;20158;51.436;-2.742;2022-09-13T08:51:47;19.80;63.70
33863;DHT22;20158;51.436;-2.742;2022-09-13T08:54:15;19.90;63.30
33863;DHT22;20158;51.436;-2.742;2022-09-13T09:05:25;20.30;63.00
33863;DHT22;20158;51.436;-2.742;2022-09-13T09:08:23;20.40;63.10
33863;DHT22;20158;51.436;-2.742;2022-09-13T09:10:49;20.40;62.80
33863;DHT22;20158;51.436;-2.742;2022-09-13T09:16:21;20.60;62.50
33863;DHT22;20158;51.436;-2.742;2022-09-13T09:18:51;20.70;62.40
33863;DHT22;20158;51.436;-2.742;2022-09-13T09:21:20;20.80;62.50
33863;DHT22;20158;51.436;-2.742;2022-09-13T09:23:54;20.90;62.40
33863;DHT22;20158;51.436;-2.742;2022-09-13T09:26:26;21.00;62.20
33863;DHT22;20158;51.436;-2.742;2022-09-13T09:29:07;21.10;62.10
33863;DHT22;20158;51.436;-2.742;2022-09-13T09:39:31;21.40;61.50
33863;DHT22;20158;51.436;-2.742;2022-09-13T09:41:58;21.50;61.60
33863;DHT22;20158;51.436;-2.742;2022-09-13T09:44:28;21.60;61.60
33863;DHT22;20158;51.436;-2.742;2022-09-13T09:47:09;21.60;61.40
33863;DHT22;20158;51.436;-2.742;2022-09-13T09:52:27;21.80;61.30
33863;DHT22;20158;51.436;-2.742;2022-09-13T09:54:55;21.90;61.20
33863;DHT22;20158;51.436;-2.742;2022-09-13T10:00:16;21.90;61.00
33863;DHT22;20158;51.436;-2.742;2022-09-13T10:02:46;21.90;61.10
33863;DHT22;20158;51.436;-2.742;2022-09-13T10:05:17;21.90;61.10
33863;DHT22;20158;51.436;-2.742;2022-09-13T10:08:25;21.80;60.80
33863;DHT22;20158;51.436;-2.742;2022-09-13T10:10:54;21.70;60.40
33863;DHT22;20158;51.436;-2.742;2022-09-13T10:13:23;21.60;60.60
33863;DHT22;20158;51.436;-2.742;2022-09-13T10:16:00;21.60;60.60
33863;DHT22;20158;51.436;-2.742;2022-09-13T10:18:31;21.50;60.40
33863;DHT22;20158;51.436;-2.742;2022-09-13T10:23:43;21.30;60.10
33863;DHT22;20158;51.436;-2.742;2022-09-13T10:26:24;21.30;60.30
33863;DHT22;20158;51.436;-2.742;2022-09-13T10:29:21;21.20;60.10
33863;DHT22;20158;51.436;-2.742;2022-09-13T10:31:51;21.20;60.00
33863;DHT22;20158;51.436;-2.742;2022-09-13T10:34:22;21.20;60.20
33863;DHT22;20158;51.436;-2.742;2022-09-13T10:37:15;21.10;60.00
33863;DHT22;20158;51.436;-2.742;2022-09-13T10:39:58;21.10;59.90
33863;DHT22;20158;51.436;-2.742;2022-09-13T10:42:26;21.10;59.90
33863;DHT22;20158;51.436;-2.742;2022-09-13T10:44:55;21.10;60.00
33863;DHT22;20158;51.436;-2.742;2022-09-13T10:47:25;21.10;60.00
33863;DHT22;20158;51.436;-2.742;2022-09-13T10:49:53;21.10;60.00
33863;DHT22;20158;51.436;-2.742;2022-09-13T10:52:29;21.10;60.10
33863;DHT22;20158;51.436;-2.742;2022-09-13T11:03:57;21.00;60.30
33863;DHT22;20158;51.436;-2.742;2022-09-13T11:06:41;21.00;60.40
33863;DHT22;20158;51.436;-2.742;2022-09-13T11:09:09;21.00;60.50
33863;DHT22;20158;51.436;-2.742;2022-09-13T11:14:47;21.00;60.50
33863;DHT22;20158;51.436;-2.742;2022-09-13T11:17:46;21.00;60.60
33863;DHT22;20158;51.436;-2.742;2022-09-13T11:23:44;20.80;60.50
33863;DHT22;20158;51.436;-2.742;2022-09-13T11:29:32;20.70;60.70
33863;DHT22;20158;51.436;-2.742;2022-09-13T11:35:24;20.60;61.00
33863;DHT22;20158;51.436;-2.742;2022-09-13T11:38:03;20.60;61.00
33863;DHT22;20158;51.436;-2.742;2022-09-13T11:52:05;20.60;61.40
33863;DHT22;20158;51.436;-2.742;2022-09-13T11:54:58;20.70;61.60
33863;DHT22;20158;51.436;-2.742;2022-09-13T11:57:34;20.70;61.50
33863;DHT22;20158;51.436;-2.742;2022-09-13T12:00:53;20.70;61.50
33863;DHT22;20158;51.436;-2.742;2022-09-13T12:03:02;20.70;61.50
33863;DHT22;20158;51.436;-2.742;2022-09-13T12:05:53;20.80;61.60
33863;DHT22;20158;51.436;-2.742;2022-09-13T12:08:28;20.80;61.60
33863;DHT22;20158;51.436;-2.742;2022-09-13T12:13:40;20.90;62.30
33863;DHT22;20158;51.436;-2.742;2022-09-13T12:16:11;20.80;61.60
33863;DHT22;20158;51.436;-2.742;2022-09-13T12:18:45;20.80;61.60
33863;DHT22;20158;51.436;-2.742;2022-09-13T12:21:16;20.90;61.80
33863;DHT22;20158;51.436;-2.742;2022-09-13T12:24:09;20.80;61.70
33863;DHT22;20158;51.436;-2.742;2022-09-13T12:31:58;20.90;61.90
33863;DHT22;20158;51.436;-2.742;2022-09-13T12:34:32;20.90;61.90
33863;DHT22;20158;51.436;-2.742;2022-09-13T12:59:50;21.30;62.10
33863;DHT22;20158;51.436;-2.742;2022-09-13T13:02:37;21.40;62.30
33863;DHT22;20158;51.436;-2.742;2022-09-13T13:05:27;21.40;62.20
33863;DHT22;20158;51.436;-2.742;2022-09-13T13:11:11;21.60;62.40
33863;DHT22;20158;51.436;-2.742;2022-09-13T13:13:57;21.60;62.40
33863;DHT22;20158;51.436;-2.742;2022-09-13T13:16:27;21.70;62.40
33863;DHT22;20158;51.436;-2.742;2022-09-13T13:19:41;21.80;62.50
33863;DHT22;20158;51.436;-2.742;2022-09-13T13:21:42;21.90;62.60
33863;DHT22;20158;51.436;-2.742;2022-09-13T13:26:54;22.00;62.60
33863;DHT22;20158;51.436;-2.742;2022-09-13T13:29:31;22.10;62.70
33863;DHT22;20158;51.436;-2.742;2022-09-13T13:34:41;22.30;63.20
33863;DHT22;20158;51.436;-2.742;2022-09-13T13:39:43;22.40;63.40
33863;DHT22;20158;51.436;-2.742;2022-09-13T13:52:49;22.40;62.60
33863;DHT22;20158;51.436;-2.742;2022-09-13T14:00:53;22.40;62.70
33863;DHT22;20158;51.436;-2.742;2022-09-13T14:03:30;22.40;62.70
33863;DHT22;20158;51.436;-2.742;2022-09-13T14:06:15;22.40;62.80
33863;DHT22;20158;51.436;-2.742;2022-09-13T14:09:22;22.30;62.70
33863;DHT22;20158;51.436;-2.742;2022-09-13T14:15:17;22.30;62.80
33863;DHT22;20158;51.436;-2.742;2022-09-13T14:20:31;22.30;62.80
33863;DHT22;20158;51.436;-2.742;2022-09-13T14:23:17;22.30;62.80
33863;DHT22;20158;51.436;-2.742;2022-09-13T14:25:53;22.30;62.60
33863;DHT22;20158;51.436;-2.742;2022-09-13T14:28:22;22.30;62.60
33863;DHT22;20158;51.436;-2.742;2022-09-13T14:30:52;22.20;62.50
33863;DHT22;20158;51.436;-2.742;2022-09-13T14:33:33;22.20;62.50
33863;DHT22;20158;51.436;-2.742;2022-09-13T14:36:16;22.20;62.60
33863;DHT22;20158;51.436;-2.742;2022-09-13T14:38:50;22.10;62.50
33863;DHT22;20158;51.436;-2.742;2022-09-13T14:41:21;22.10;62.50
33863;DHT22;20158;51.436;-2.742;2022-09-13T14:43:48;22.10;62.60
33863;DHT22;20158;51.436;-2.742;2022-09-13T14:46:27;22.00;62.50
33863;DHT22;20158;51.436;-2.742;2022-09-13T14:49:01;22.00;62.60
33863;DHT22;20158;51.436;-2.742;2022-09-13T14:51:45;21.90;62.60
33863;DHT22;20158;51.436;-2.742;2022-09-13T14:56:52;21.80;62.70
33863;DHT22;20158;51.436;-2.742;2022-09-13T14:59:32;21.70;62.70
33863;DHT22;20158;51.436;-2.742;2022-09-13T15:02:05;21.60;62.70
33863;DHT22;20158;51.436;-2.742;2022-09-13T15:04:32;21.60;62.90
33863;DHT22;20158;51.436;-2.742;2022-09-13T15:07:37;21.60;63.00
33863;DHT22;20158;51.436;-2.742;2022-09-13T15:12:48;21.50;63.10
33863;DHT22;20158;51.436;-2.742;2022-09-13T15:15:31;21.40;63.00
33863;DHT22;20158;51.436;-2.742;2022-09-13T15:18:20;21.40;63.20
33863;DHT22;20158;51.436;-2.742;2022-09-13T15:21:01;21.30;63.10
33863;DHT22;20158;51.436;-2.742;2022-09-13T15:31:25;21.20;63.60
33863;DHT22;20158;51.436;-2.742;2022-09-13T15:34:19;21.10;63.60
33863;DHT22;20158;51.436;-2.742;2022-09-13T15:39:26;21.00;63.80
33863;DHT22;20158;51.436;-2.742;2022-09-13T15:41:56;21.00;63.90
33863;DHT22;20158;51.436;-2.742;2022-09-13T15:44:23;21.00;64.00
33863;DHT22;20158;51.436;-2.742;2022-09-13T15:46:54;20.90;63.90
33863;DHT22;20158;51.436;-2.742;2022-09-13T15:49:26;20.90;64.00
33863;DHT22;20158;51.436;-2.742;2022-09-13T15:51:55;20.90;64.10
33863;DHT22;20158;51.436;-2.742;2022-09-13T15:54:21;20.90;64.10
33863;DHT22;20158;51.436;-2.742;2022-09-13T15:56:48;20.90;64.10
33863;DHT22;20158;51.436;-2.742;2022-09-13T15:59:19;20.90;64.20
33863;DHT22;20158;51.436;-2.742;2022-09-13T16:01:48;21.00;64.40
33863;DHT22;20158;51.436;-2.742;2022-09-13T16:04:14;21.00;64.40
33863;DHT22;20158;51.436;-2.742;2022-09-13T16:06:41;21.00;64.60
33863;DHT22;20158;51.436;-2.742;2022-09-13T16:09:19;21.00;64.50
33863;DHT22;20158;51.436;-2.742;2022-09-13T16:11:46;21.00;64.50
33863;DHT22;20158;51.436;-2.742;2022-09-13T16:14:14;21.00;64.50
33863;DHT22;20158;51.436;-2.742;2022-09-13T16:16:40;21.10;64.70
33863;DHT22;20158;51.436;-2.742;2022-09-13T16:19:13;21.00;64.50
33863;DHT22;20158;51.436;-2.742;2022-09-13T16:21:39;21.00;64.60
33863;DHT22;20158;51.436;-2.742;2022-09-13T16:24:05;21.00;64.70
33863;DHT22;20158;51.436;-2.742;2022-09-13T16:26:32;21.00;64.80
33863;DHT22;20158;51.436;-2.742;2022-09-13T16:28:58;21.00;64.80
33863;DHT22;20158;51.436;-2.742;2022-09-13T16:31:27;21.00;64.90
33863;DHT22;20158;51.436;-2.742;2022-09-13T16:33:54;20.90;64.80
33863;DHT22;20158;51.436;-2.742;2022-09-13T16:36:20;20.90;64.90
33863;DHT22;20158;51.436;-2.742;2022-09-13T16:38:46;20.90;65.20
33863;DHT22;20158;51.436;-2.742;2022-09-13T16:41:12;20.90;65.70
33863;DHT22;20158;51.436;-2.742;2022-09-13T16:43:37;20.90;66.30
33863;DHT22;20158;51.436;-2.742;2022-09-13T16:46:09;20.90;66.70
33863;DHT22;20158;51.436;-2.742;2022-09-13T16:48:36;20.90;67.20
33863;DHT22;20158;51.436;-2.742;2022-09-13T16:51:04;20.90;67.40
33863;DHT22;20158;51.436;-2.742;2022-09-13T16:53:32;20.90;67.70
33863;DHT22;20158;51.436;-2.742;2022-09-13T16:56:11;20.90;67.90
33863;DHT22;20158;51.436;-2.742;2022-09-13T16:58:39;20.80;68.20
33863;DHT22;20158;51.436;-2.742;2022-09-13T17:01:08;20.80;68.10
33863;DHT22;20158;51.436;-2.742;2022-09-13T17:03:36;20.80;68.40
33863;DHT22;20158;51.436;-2.742;2022-09-13T17:06:12;20.80;68.60
33863;DHT22;20158;51.436;-2.742;2022-09-13T17:08:52;20.80;68.80
33863;DHT22;20158;51.436;-2.742;2022-09-13T17:11:22;20.80;68.80
33863;DHT22;20158;51.436;-2.742;2022-09-13T17:13:48;20.80;68.80
33863;DHT22;20158;51.436;-2.742;2022-09-13T17:16:24;20.70;68.70
33863;DHT22;20158;51.436;-2.742;2022-09-13T17:18:51;20.70;68.80
33863;DHT22;20158;51.436;-2.742;2022-09-13T17:21:22;20.60;68.60
33863;DHT22;20158;51.436;-2.742;2022-09-13T17:23:49;20.60;68.70
33863;DHT22;20158;51.436;-2.742;2022-09-13T17:26:15;20.60;68.80
33863;DHT22;20158;51.436;-2.742;2022-09-13T17:28:41;20.50;68.70
33863;DHT22;20158;51.436;-2.742;2022-09-13T17:31:13;20.50;68.80
33863;DHT22;20158;51.436;-2.742;2022-09-13T17:33:39;20.40;68.70
33863;DHT22;20158;51.436;-2.742;2022-09-13T17:36:12;20.40;68.70
33863;DHT22;20158;51.436;-2.742;2022-09-13T17:38:38;20.30;68.60
33863;DHT22;20158;51.436;-2.742;2022-09-13T17:41:10;20.30;68.60
33863;DHT22;20158;51.436;-2.742;2022-09-13T17:43:38;20.30;68.50
33863;DHT22;20158;51.436;-2.742;2022-09-13T17:46:14;20.20;68.50
33863;DHT22;20158;51.436;-2.742;2022-09-13T17:48:41;20.20;68.60
33863;DHT22;20158;51.436;-2.742;2022-09-13T17:51:10;20.10;68.50
33863;DHT22;20158;51.436;-2.742;2022-09-13T17:53:42;20.10;68.60
33863;DHT22;20158;51.436;-2.742;2022-09-13T17:56:08;20.10;68.70
33863;DHT22;20158;51.436;-2.742;2022-09-13T17:58:35;20.00;68.60
33863;DHT22;20158;51.436;-2.742;2022-09-13T18:01:04;20.00;68.70
33863;DHT22;20158;51.436;-2.742;2022-09-13T18:03:31;19.90;68.70
33863;DHT22;20158;51.436;-2.742;2022-09-13T18:05:58;19.90;68.60
33863;DHT22;20158;51.436;-2.742;2022-09-13T18:08:26;19.90;68.70
33863;DHT22;20158;51.436;-2.742;2022-09-13T18:10:52;19.80;68.60
33863;DHT22;20158;51.436;-2.742;2022-09-13T18:13:19;19.80;68.70
33863;DHT22;20158;51.436;-2.742;2022-09-13T18:15:57;19.80;68.70
33863;DHT22;20158;51.436;-2.742;2022-09-13T18:18:23;19.70;68.60
33863;DHT22;20158;51.436;-2.742;2022-09-13T18:20:49;19.70;68.60
33863;DHT22;20158;51.436;-2.742;2022-09-13T18:23:16;19.70;68.70
33863;DHT22;20158;51.436;-2.742;2022-09-13T18:25:42;19.60;68.50
33863;DHT22;20158;51.436;-2.742;2022-09-13T18:28:10;19.60;68.60
33863;DHT22;20158;51.436;-2.742;2022-09-13T18:30:36;19.60;68.60
33863;DHT22;20158;51.436;-2.742;2022-09-13T18:33:02;19.50;68.50
33863;DHT22;20158;51.436;-2.742;2022-09-13T18:35:28;19.50;68.60
33863;DHT22;20158;51.436;-2.742;2022-09-13T18:37:55;19.50;68.70
33863;DHT22;20158;51.436;-2.742;2022-09-13T18:40:21;19.40;68.50
33863;DHT22;20158;51.436;-2.742;2022-09-13T18:42:47;19.40;68.50
33863;DHT22;20158;51.436;-2.742;2022-09-13T18:45:13;19.30;68.40
33863;DHT22;20158;51.436;-2.742;2022-09-13T18:47:40;19.30;68.50
33863;DHT22;20158;51.436;-2.742;2022-09-13T18:50:06;19.30;68.60
33863;DHT22;20158;51.436;-2.742;2022-09-13T18:52:32;19.20;68.40
33863;DHT22;20158;51.436;-2.742;2022-09-13T18:54:58;19.20;68.50
33863;DHT22;20158;51.436;-2.742;2022-09-13T18:57:24;19.10;68.40
33863;DHT22;20158;51.436;-2.742;2022-09-13T18:59:50;19.10;68.50